Time;durP1;ratioP1;P1;durP2;ratioP2;P2;SDS_P1;SDS_P2;PMS_P1;PMS_P2;Temp;Humidity;BMP_temperature;BMP_pressure;BME280_temperature;BME280_humidity;BME280_pressure;Samples;Min_cycle;Max_cycle;Signal;HPM_P1;HPM_P2
2023/08/14 00:02:24;;;;;;;5.05;3.90;;;;;19.50;94308.00;;;;7395301;19;20624;-80
2023/08/14 00:04:59;;;;;;;4.82;3.83;;;;;19.50;94305.00;;;;7396286;19;20497;-81
2023/08/14 00:07:40;;;;;;;6.95;4.05;;;;;19.40;94306.00;;;;7394040;19;20148;-81
2023/08/14 00:10:16;;;;;;;5.93;4.75;;;;;19.50;94306.00;;;;7397403;19;20602;-82
2023/08/14 00:12:50;;;;;;;4.55;4.15;;;;;19.70;94310.00;;;;7397872;19;20467;-81
2023/08/14 00:15:18;;;;;;;5.35;4.28;;;;;19.80;94304.00;;;;7396524;19;20144;-82
2023/08/14 00:17:46;;;;;;;7.75;4.50;;;;;19.90;94304.00;;;;7394385;19;20588;-79
2023/08/14 00:20:20;;;;;;;5.00;4.50;;;;;20.00;94304.00;;;;7399062;19;20136;-82
2023/08/14 00:22:48;;;;;;;6.47;3.97;;;;;20.00;94305.00;;;;7397515;19;20141;-81
2023/08/14 00:25:22;;;;;;;7.13;4.18;;;;;20.00;94292.00;;;;7397816;19;20178;-79
2023/08/14 00:27:52;;;;;;;7.57;4.50;;;;;19.90;94287.00;;;;7398785;19;20149;-79
2023/08/14 00:30:25;;;;;;;5.95;3.90;;;;;19.90;94302.00;;;;7396764;19;20121;-80
2023/08/14 00:32:53;;;;;;;6.90;4.55;;;;;20.00;94296.00;;;;7386451;19;20152;-77
2023/08/14 00:35:29;;;;;;;7.05;4.45;;;;;20.00;94293.00;;;;7392783;19;20147;-78
2023/08/14 00:38:04;;;;;;;8.75;4.85;;;;;20.10;94293.00;;;;7396152;19;20582;-79
2023/08/14 00:40:39;;;;;;;7.88;5.10;;;;;20.10;94293.00;;;;7396843;19;20121;-78
2023/08/14 00:43:13;;;;;;;6.85;4.63;;;;;20.00;94292.00;;;;7396873;19;20492;-78
2023/08/14 00:45:43;;;;;;;4.88;4.30;;;;;20.00;94292.00;;;;7395759;19;20143;-79
2023/08/14 00:48:21;;;;;;;4.43;4.03;;;;;20.00;94293.00;;;;7396611;19;20133;-76
2023/08/14 00:50:50;;;;;;;5.50;4.85;;;;;20.00;94294.00;;;;7396147;19;20630;-81
2023/08/14 00:53:29;;;;;;;4.55;3.90;;;;;20.00;94301.00;;;;7394116;19;20490;-78
2023/08/14 00:55:57;;;;;;;5.93;4.53;;;;;20.00;94294.00;;;;7393632;19;20584;-76
2023/08/14 00:58:25;;;;;;;8.48;4.70;;;;;20.10;94304.00;;;;7394915;19;20128;-76
2023/08/14 01:01:15;;;;;;;5.05;4.55;;;;;20.20;94296.00;;;;7386123;19;20733;-80
2023/08/14 01:03:51;;;;;;;7.40;4.60;;;;;20.10;94299.00;;;;7395408;19;20152;-82
2023/08/14 01:06:28;;;;;;;9.30;5.55;;;;;20.30;94301.00;;;;7395307;19;20193;-78
2023/08/14 01:09:02;;;;;;;6.35;4.88;;;;;20.30;94319.00;;;;7397200;19;20159;-79
2023/08/14 01:12:11;;;;;;;7.15;5.40;;;;;20.20;94307.00;;;;7395679;19;20136;-78
2023/08/14 01:14:42;;;;;;;10.98;5.75;;;;;20.20;94307.00;;;;7393235;19;20136;-79
2023/08/14 01:17:19;;;;;;;10.63;5.35;;;;;20.20;94296.00;;;;7394687;19;20204;-78
2023/08/14 01:19:51;;;;;;;7.40;5.53;;;;;20.10;94289.00;;;;7396626;19;20132;-79
2023/08/14 01:22:44;;;;;;;12.25;6.25;;;;;19.90;94294.00;;;;7394475;19;20137;-79
2023/08/14 01:25:31;;;;;;;10.68;6.18;;;;;19.80;94288.00;;;;7393690;19;20247;-80
2023/08/14 01:28:01;;;;;;;9.65;6.40;;;;;19.70;94287.00;;;;7397277;19;20487;-79
2023/08/14 01:30:35;;;;;;;7.95;6.22;;;;;19.60;94289.00;;;;7395501;19;20616;-82
2023/08/14 01:33:03;;;;;;;11.05;6.03;;;;;19.50;94285.00;;;;7393938;19;20141;-79
2023/08/14 01:35:48;;;;;;;10.27;6.93;;;;;19.50;94295.00;;;;7395209;19;20129;-82
2023/08/14 01:38:42;;;;;;;9.93;7.03;;;;;19.40;94289.00;;;;7395588;19;20171;-79
2023/08/14 01:41:24;;;;;;;11.68;7.72;;;;;19.40;94290.00;;;;7397268;19;20132;-81
2023/08/14 01:43:59;;;;;;;10.05;7.70;;;;;19.50;94293.00;;;;7395802;19;20133;-82
2023/08/14 01:46:34;;;;;;;9.25;8.00;;;;;19.40;94283.00;;;;7395355;19;20136;-83
2023/08/14 01:49:17;;;;;;;12.35;7.45;;;;;19.40;94284.00;;;;7397375;19;20601;-85
2023/08/14 01:51:53;;;;;;;9.80;6.97;;;;;19.30;94283.00;;;;7397080;19;20159;-84
2023/08/14 01:54:28;;;;;;;11.38;7.25;;;;;19.30;94273.00;;;;7392192;19;20149;-84
2023/08/14 01:57:02;;;;;;;10.80;6.68;;;;;19.10;94268.00;;;;7396175;19;20142;-83
2023/08/14 01:59:47;;;;;;;9.65;6.85;;;;;19.00;94261.00;;;;7395799;19;20426;-82
2023/08/14 02:02:28;;;;;;;9.00;6.43;;;;;19.00;94255.00;;;;7392050;19;20180;-84
2023/08/14 02:05:03;;;;;;;13.07;6.68;;;;;18.90;94244.00;;;;7397146;19;20154;-83
2023/08/14 02:07:37;;;;;;;10.00;6.50;;;;;18.80;94251.00;;;;7393744;19;20153;-81
2023/08/14 02:10:12;;;;;;;9.10;6.32;;;;;18.80;94255.00;;;;7395309;19;20686;-84
2023/08/14 02:12:39;;;;;;;7.97;7.18;;;;;18.70;94237.00;;;;7396120;19;20152;-82
2023/08/14 02:15:14;;;;;;;9.13;6.93;;;;;18.70;94233.00;;;;7402726;19;20147;-81
2023/08/14 02:17:49;;;;;;;8.93;6.82;;;;;18.70;94225.00;;;;7401631;19;20216;-83
2023/08/14 02:20:20;;;;;;;12.93;7.60;;;;;18.70;94221.00;;;;7401502;19;20614;-82
2023/08/14 02:22:53;;;;;;;9.20;6.57;;;;;18.80;94222.00;;;;7403893;19;20649;-81
2023/08/14 02:25:27;;;;;;;10.88;6.95;;;;;18.80;94217.00;;;;7402242;19;20148;-83
2023/08/14 02:28:01;;;;;;;9.13;6.70;;;;;18.70;94213.00;;;;7401160;19;20470;-82
2023/08/14 02:30:29;;;;;;;8.98;6.45;;;;;18.60;94203.00;;;;7402331;19;20599;-82
2023/08/14 02:33:06;;;;;;;9.15;5.93;;;;;18.50;94204.00;;;;7398647;19;20167;-81
2023/08/14 02:35:36;;;;;;;10.85;6.15;;;;;18.50;94195.00;;;;7400288;19;20145;-82
2023/08/14 02:38:11;;;;;;;9.07;5.93;;;;;18.40;94198.00;;;;7401977;19;20152;-80
2023/08/14 02:40:42;;;;;;;7.78;4.75;;;;;18.30;94197.00;;;;7401017;19;20141;-81
2023/08/14 02:43:16;;;;;;;7.68;5.55;;;;;18.20;94187.00;;;;7401210;19;20192;-83
2023/08/14 02:45:44;;;;;;;7.38;5.60;;;;;18.20;94199.00;;;;7403270;19;20137;-83
2023/08/14 02:48:19;;;;;;;7.57;5.53;;;;;18.10;94196.00;;;;7400611;19;20717;-83
2023/08/14 02:50:47;;;;;;;6.88;5.47;;;;;18.00;94193.00;;;;7400272;19;20155;-85
2023/08/14 02:53:21;;;;;;;7.68;5.35;;;;;18.00;94203.00;;;;7400676;19;20148;-86
2023/08/14 02:55:53;;;;;;;5.75;5.18;;;;;18.00;94208.00;;;;7401449;19;20149;-85
2023/08/14 02:58:27;;;;;;;10.25;5.63;;;;;18.00;94202.00;;;;7401547;19;20183;-86
2023/08/14 03:01:08;;;;;;;7.32;5.50;;;;;17.90;94205.00;;;;7401664;19;20168;-83
2023/08/14 03:03:49;;;;;;;5.88;5.28;;;;;17.90;94214.00;;;;7401951;19;20128;-82
2023/08/14 03:06:29;;;;;;;7.38;5.18;;;;;17.90;94198.00;;;;7399807;19;20151;-82
2023/08/14 03:09:03;;;;;;;8.10;5.70;;;;;17.90;94200.00;;;;7400879;19;20136;-81
2023/08/14 03:11:37;;;;;;;5.95;5.35;;;;;17.80;94201.00;;;;7402335;19;20132;-83
2023/08/14 03:14:13;;;;;;;8.93;5.50;;;;;17.70;94215.00;;;;7398264;19;20149;-83
2023/08/14 03:16:41;;;;;;;6.15;4.38;;;;;17.70;94218.00;;;;7400647;19;20155;-82
2023/08/14 03:19:15;;;;;;;7.03;5.40;;;;;17.70;94217.00;;;;7400631;19;20149;-82
2023/08/14 03:21:43;;;;;;;9.23;5.82;;;;;17.70;94206.00;;;;7399268;19;20497;-82
2023/08/14 03:24:17;;;;;;;10.98;5.93;;;;;17.70;94205.00;;;;7396577;19;20144;-81
2023/08/14 03:26:46;;;;;;;8.93;5.60;;;;;17.60;94217.00;;;;7400636;19;20718;-76
2023/08/14 03:29:14;;;;;;;6.57;5.53;;;;;17.60;94228.00;;;;7394038;19;20603;-77
2023/08/14 03:31:48;;;;;;;7.13;5.60;;;;;17.50;94227.00;;;;7391947;19;20152;-76
2023/08/14 03:34:22;;;;;;;8.48;5.63;;;;;17.50;94227.00;;;;7397582;19;20147;-78
2023/08/14 03:36:50;;;;;;;8.88;5.95;;;;;17.50;94225.00;;;;7398205;19;20214;-77
2023/08/14 03:39:24;;;;;;;6.05;5.10;;;;;17.40;94215.00;;;;7398140;19;20128;-76
2023/08/14 03:41:53;;;;;;;8.30;5.40;;;;;17.40;94208.00;;;;7399320;19;20504;-75
2023/08/14 03:44:27;;;;;;;6.57;5.25;;;;;17.40;94208.00;;;;7395610;19;20144;-76
2023/08/14 03:46:55;;;;;;;7.03;5.53;;;;;17.30;94215.00;;;;7398848;19;20145;-78
2023/08/14 03:49:29;;;;;;;5.18;4.18;;;;;17.40;94214.00;;;;7397888;19;20150;-77
2023/08/14 03:52:08;;;;;;;7.07;4.28;;;;;17.40;94214.00;;;;7397968;19;20614;-75
2023/08/14 03:54:43;;;;;;;6.55;3.97;;;;;17.40;94214.00;;;;7397361;19;20206;-75
2023/08/14 03:57:17;;;;;;;4.63;4.13;;;;;17.30;94221.00;;;;7398326;19;20171;-77
2023/08/14 03:59:51;;;;;;;6.18;4.70;;;;;17.30;94214.00;;;;7395635;19;20144;-77
2023/08/14 04:02:32;;;;;;;7.93;5.53;;;;;17.20;94224.00;;;;7392895;19;20188;-77
2023/08/14 04:05:07;;;;;;;5.03;4.30;;;;;17.20;94222.00;;;;7397761;19;20141;-74
2023/08/14 04:07:35;;;;;;;4.97;4.40;;;;;17.10;94216.00;;;;7393978;19;20595;-77
2023/08/14 04:10:09;;;;;;;7.10;4.32;;;;;17.20;94214.00;;;;7397558;19;20132;-78
2023/08/14 04:12:46;;;;;;;5.30;4.22;;;;;17.30;94214.00;;;;7398175;19;20141;-78
2023/08/14 04:15:24;;;;;;;5.60;4.07;;;;;17.30;94218.00;;;;7395397;19;20125;-76
2023/08/14 04:18:00;;;;;;;4.75;3.85;;;;;17.30;94217.00;;;;7394059;19;20142;-76
2023/08/14 04:20:35;;;;;;;5.30;4.75;;;;;17.40;94215.00;;;;7395602;19;20655;-78
2023/08/14 04:23:02;;;;;;;5.32;4.10;;;;;17.40;94219.00;;;;7397383;19;20531;-77
2023/08/14 04:25:37;;;;;;;7.97;5.22;;;;;17.30;94219.00;;;;7395415;19;20505;-78
2023/08/14 04:28:05;;;;;;;4.38;3.97;;;;;17.40;94220.00;;;;7395996;19;20471;-77
2023/08/14 04:30:47;;;;;;;4.72;3.70;;;;;17.30;94229.00;;;;7396226;19;20534;-77
2023/08/14 04:33:18;;;;;;;4.22;3.55;;;;;17.20;94230.00;;;;7395093;19;20139;-75
2023/08/14 04:35:53;;;;;;;4.10;3.65;;;;;17.20;94235.00;;;;7394446;19;20167;-82
2023/08/14 04:38:21;;;;;;;6.05;4.10;;;;;17.20;94226.00;;;;7396388;19;20156;-82
2023/08/14 04:40:56;;;;;;;4.60;3.85;;;;;17.20;94220.00;;;;7398220;19;20148;-82
2023/08/14 04:43:31;;;;;;;4.68;3.90;;;;;17.20;94218.00;;;;7396887;19;20189;-81
2023/08/14 04:46:32;;;;;;;5.15;4.10;;;;;17.20;94214.00;;;;7395381;19;20155;-81
2023/08/14 04:49:15;;;;;;;7.18;4.20;;;;;17.20;94218.00;;;;7397533;19;20467;-82
2023/08/14 04:51:53;;;;;;;5.55;3.50;;;;;17.10;94202.00;;;;7396186;19;20151;-81
2023/08/14 04:54:27;;;;;;;3.83;3.42;;;;;17.10;94203.00;;;;7396351;19;20215;-82
2023/08/14 04:57:01;;;;;;;4.55;2.88;;;;;17.30;94195.00;;;;7396639;19;20144;-82
2023/08/14 04:59:35;;;;;;;3.42;3.13;;;;;17.30;94191.00;;;;7397068;19;20156;-83
2023/08/14 05:02:09;;;;;;;4.07;2.85;;;;;17.30;94194.00;;;;7396511;19;20169;-82
2023/08/14 05:04:51;;;;;;;2.63;2.42;;;;;17.40;94188.00;;;;7398374;19;20129;-85
2023/08/14 05:07:26;;;;;;;2.40;2.20;;;;;17.50;94186.00;;;;7395991;19;20148;-85
2023/08/14 05:10:00;;;;;;;2.70;1.83;;;;;17.60;94181.00;;;;7397816;19;20196;-82
2023/08/14 05:12:28;;;;;;;2.13;1.30;;;;;17.80;94182.00;;;;7398620;19;20498;-84
2023/08/14 05:15:02;;;;;;;1.58;1.35;;;;;18.20;94173.00;;;;7397553;19;20143;-90
2023/08/14 05:17:30;;;;;;;1.92;1.00;;;;;18.20;94172.00;;;;7398257;19;20149;-88
2023/08/14 05:20:05;;;;;;;1.17;0.98;;;;;18.30;94176.00;;;;7396778;19;20141;-86
2023/08/14 05:22:32;;;;;;;2.20;1.00;;;;;18.40;94181.00;;;;7396589;19;20144;-85
2023/08/14 05:25:08;;;;;;;1.30;1.20;;;;;18.50;94177.00;;;;7395559;19;20171;-86
2023/08/14 05:27:38;;;;;;;2.58;1.17;;;;;18.30;94172.00;;;;7396226;19;20153;-82
2023/08/14 05:30:17;;;;;;;1.98;1.42;;;;;18.30;94188.00;;;;7395575;19;20148;-84
2023/08/14 05:32:51;;;;;;;1.50;1.40;;;;;18.20;94180.00;;;;7392538;19;20132;-83
2023/08/14 05:35:28;;;;;;;2.05;1.65;;;;;18.30;94183.00;;;;7394120;19;20152;-85
2023/08/14 05:38:02;;;;;;;2.88;2.50;;;;;18.60;94179.00;;;;7395050;19;20149;-84
2023/08/14 05:40:36;;;;;;;2.53;2.33;;;;;18.80;94159.00;;;;7396848;19;20133;-82
2023/08/14 05:43:11;;;;;;;3.15;2.83;;;;;19.00;94148.00;;;;7396880;19;20486;-85
2023/08/14 05:45:46;;;;;;;3.13;2.78;;;;;19.00;94146.00;;;;7395098;19;20168;-76
2023/08/14 05:48:21;;;;;;;4.63;2.47;;;;;19.00;94157.00;;;;7402399;19;20592;-79
2023/08/14 05:50:55;;;;;;;2.97;2.50;;;;;19.00;94154.00;;;;7400471;19;20131;-78
2023/08/14 05:53:22;;;;;;;2.97;2.47;;;;;19.00;94169.00;;;;7401463;19;20128;-76
2023/08/14 05:55:57;;;;;;;6.93;2.80;;;;;18.80;94170.00;;;;7401995;19;20579;-76
2023/08/14 05:58:24;;;;;;;3.25;2.88;;;;;18.90;94178.00;;;;7402139;19;20459;-77
2023/08/14 06:01:05;;;;;;;4.28;2.70;;;;;19.10;94169.00;;;;7397469;19;20513;-75
2023/08/14 06:03:39;;;;;;;4.35;2.70;;;;;19.10;94173.00;;;;7401347;19;20144;-78
2023/08/14 06:06:16;;;;;;;3.25;2.25;;;;;19.20;94172.00;;;;7399418;19;20165;-77
2023/08/14 06:08:55;;;;;;;3.10;2.58;;;;;19.40;94154.00;;;;7402513;19;20575;-78
2023/08/14 06:11:27;;;;;;;2.50;2.08;;;;;19.70;94158.00;;;;7402540;19;20678;-75
2023/08/14 06:14:03;;;;;;;2.60;2.00;;;;;20.00;94155.00;;;;7400860;19;20171;-77
2023/08/14 06:16:37;;;;;;;5.05;2.10;;;;;20.00;94152.00;;;;7398769;19;20136;-77
2023/08/14 06:19:11;;;;;;;3.97;1.95;;;;;20.20;94149.00;;;;7401570;19;20575;-80
2023/08/14 06:21:47;;;;;;;4.28;2.20;;;;;20.40;94158.00;;;;7398957;19;20147;-78
2023/08/14 06:24:16;;;;;;;3.00;2.08;;;;;20.30;94159.00;;;;7400055;19;20595;-77
2023/08/14 06:26:45;;;;;;;2.25;2.05;;;;;20.40;94153.00;;;;7380125;19;20183;-75
2023/08/14 06:29:19;;;;;;;3.55;2.40;;;;;20.70;94156.00;;;;7386793;19;20184;-76
2023/08/14 06:31:47;;;;;;;4.65;2.30;;;;;20.90;94157.00;;;;7385513;19;20125;-77
2023/08/14 06:34:28;;;;;;;4.30;2.60;;;;;21.00;94166.00;;;;7397190;19;20140;-77
2023/08/14 06:36:56;;;;;;;3.35;2.53;;;;;21.00;94161.00;;;;7387789;19;20154;-77
2023/08/14 06:39:31;;;;;;;2.95;2.65;;;;;21.30;94158.00;;;;7388106;19;20177;-76
2023/08/14 06:42:05;;;;;;;2.97;2.65;;;;;21.60;94157.00;;;;7390060;19;20156;-76
2023/08/14 06:44:40;;;;;;;4.18;3.30;;;;;21.60;94166.00;;;;7389561;19;20156;-74
2023/08/14 06:47:08;;;;;;;2.88;2.58;;;;;21.80;94170.00;;;;7387162;19;20971;-75
2023/08/14 06:49:43;;;;;;;6.78;3.10;;;;;21.60;94167.00;;;;7387292;19;20153;-77
2023/08/14 06:52:19;;;;;;;4.03;2.90;;;;;21.70;94158.00;;;;7382819;19;20152;-76
2023/08/14 06:54:53;;;;;;;3.65;2.72;;;;;21.90;94161.00;;;;7386821;19;20171;-77
2023/08/14 06:57:23;;;;;;;2.83;2.60;;;;;22.10;94151.00;;;;7385066;19;20152;-77
2023/08/14 07:00:05;;;;;;;3.28;2.67;;;;;22.20;94153.00;;;;7389642;19;20148;-78
2023/08/14 07:02:34;;;;;;;3.05;2.45;;;;;22.30;94150.00;;;;7385186;19;20195;-78
2023/08/14 07:05:10;;;;;;;3.30;2.45;;;;;22.50;94147.00;;;;7385382;19;20129;-79
2023/08/14 07:07:39;;;;;;;3.50;2.58;;;;;22.60;94139.00;;;;7387719;19;20129;-77
2023/08/14 07:10:13;;;;;;;3.33;2.50;;;;;22.70;94138.00;;;;7386973;19;20494;-76
2023/08/14 07:12:43;;;;;;;3.45;2.67;;;;;22.90;94144.00;;;;7385826;19;20155;-78
2023/08/14 07:15:17;;;;;;;3.53;2.33;;;;;23.00;94146.00;;;;7388374;19;20160;-79
2023/08/14 07:17:45;;;;;;;2.78;2.40;;;;;23.30;94140.00;;;;7386901;19;20188;-80
2023/08/14 07:20:20;;;;;;;4.25;2.42;;;;;23.30;94136.00;;;;7386621;19;20148;-77
2023/08/14 07:22:54;;;;;;;4.72;2.85;;;;;23.60;94143.00;;;;7383215;19;20125;-77
2023/08/14 07:25:29;;;;;;;3.35;2.58;;;;;23.70;94143.00;;;;7384763;19;20140;-79
2023/08/14 07:27:56;;;;;;;3.72;2.22;;;;;23.90;94144.00;;;;7385857;19;20158;-78
2023/08/14 07:30:31;;;;;;;2.50;2.30;;;;;24.10;94140.00;;;;7384653;19;20141;-77
2023/08/14 07:32:59;;;;;;;3.28;2.30;;;;;24.10;94143.00;;;;7382319;19;20132;-79
2023/08/14 07:35:33;;;;;;;3.10;2.20;;;;;24.30;94141.00;;;;7384947;19;20133;-77
2023/08/14 07:38:07;;;;;;;7.13;2.45;;;;;24.50;94148.00;;;;7382233;19;20564;-78
2023/08/14 07:40:41;;;;;;;4.13;2.10;;;;;24.60;94143.00;;;;7385823;19;20132;-78
2023/08/14 07:43:15;;;;;;;2.60;2.30;;;;;24.70;94150.00;;;;7383779;19;20246;-81
2023/08/14 07:45:43;;;;;;;5.13;2.50;;;;;24.90;94151.00;;;;7382627;19;20144;-76
2023/08/14 07:48:18;;;;;;;3.97;2.53;;;;;24.80;94155.00;;;;7383048;19;20126;-78
2023/08/14 07:50:53;;;;;;;2.92;2.42;;;;;24.90;94146.00;;;;7382888;19;20149;-79
2023/08/14 07:53:28;;;;;;;4.18;2.35;;;;;25.00;94152.00;;;;7383343;19;20128;-79
2023/08/14 07:55:56;;;;;;;3.40;2.63;;;;;25.10;94159.00;;;;7378787;19;20148;-78
2023/08/14 07:58:31;;;;;;;5.22;2.50;;;;;25.20;94157.00;;;;7381473;19;20158;-77
2023/08/14 08:01:05;;;;;;;3.35;2.63;;;;;25.10;94162.00;;;;7383396;19;20654;-78
2023/08/14 08:03:39;;;;;;;7.32;2.97;;;;;25.40;94171.00;;;;7384745;19;20165;-76
2023/08/14 08:06:14;;;;;;;3.20;2.70;;;;;25.60;94167.00;;;;7383787;19;20141;-82
2023/08/14 08:08:42;;;;;;;4.97;2.80;;;;;25.80;94173.00;;;;7386444;19;20125;-83
2023/08/14 08:11:21;;;;;;;4.03;2.95;;;;;26.00;94182.00;;;;7383192;19;20153;-84
2023/08/14 08:13:49;;;;;;;3.95;2.65;;;;;26.30;94181.00;;;;7382737;19;20575;-76
2023/08/14 08:16:25;;;;;;;3.25;2.85;;;;;26.40;94182.00;;;;7379799;19;20495;-82
2023/08/14 08:18:53;;;;;;;5.97;3.05;;;;;26.60;94185.00;;;;7377131;19;20144;-82
2023/08/14 08:21:32;;;;;;;3.70;2.50;;;;;26.80;94189.00;;;;7390261;19;20133;-80
2023/08/14 08:24:07;;;;;;;3.22;2.53;;;;;27.00;94189.00;;;;7384133;19;20144;-81
2023/08/14 08:26:41;;;;;;;3.17;2.70;;;;;27.20;94191.00;;;;7378822;19;20140;-85
2023/08/14 08:29:09;;;;;;;3.47;2.80;;;;;27.20;94178.00;;;;7378946;19;20167;-79
2023/08/14 08:31:43;;;;;;;4.95;2.70;;;;;27.50;94188.00;;;;7383267;19;20128;-83
2023/08/14 08:34:17;;;;;;;6.10;3.08;;;;;27.70;94178.00;;;;7382589;19;20153;-84
2023/08/14 08:36:51;;;;;;;5.35;3.00;;;;;27.90;94142.00;;;;7382078;19;20571;-82
2023/08/14 08:39:25;;;;;;;5.35;2.95;;;;;28.10;94184.00;;;;7383944;19;20151;-82
2023/08/14 08:41:56;;;;;;;6.93;3.15;;;;;28.30;94188.00;;;;7383377;19;20125;-84
2023/08/14 08:44:32;;;;;;;6.30;3.40;;;;;28.30;94190.00;;;;7381177;19;20279;-82
2023/08/14 08:47:13;;;;;;;4.22;3.25;;;;;27.90;94191.00;;;;7379548;19;20603;-81
2023/08/14 08:49:46;;;;;;;4.50;3.30;;;;;27.90;94196.00;;;;7384914;19;20506;-83
2023/08/14 08:52:21;;;;;;;4.90;3.38;;;;;27.80;94204.00;;;;7381734;19;20479;-80
2023/08/14 08:54:50;;;;;;;4.95;3.08;;;;;27.60;94188.00;;;;7378002;19;20148;-84
2023/08/14 08:57:25;;;;;;;8.02;3.40;;;;;28.20;94180.00;;;;7382600;19;20124;-78
2023/08/14 08:59:53;;;;;;;7.38;3.40;;;;;28.80;94206.00;;;;7381621;19;20156;-82
2023/08/14 09:02:28;;;;;;;3.92;3.30;;;;;28.60;94192.00;;;;7377140;19;20214;-83
2023/08/14 09:05:09;;;;;;;4.40;3.17;;;;;28.90;94187.00;;;;7380374;19;20575;-84
2023/08/14 09:07:44;;;;;;;5.78;3.45;;;;;29.30;94172.00;;;;7383369;19;20227;-83
2023/08/14 09:10:15;;;;;;;5.82;3.83;;;;;29.70;94193.00;;;;7382758;19;20529;-85
2023/08/14 09:12:50;;;;;;;5.95;3.60;;;;;29.20;94176.00;;;;7382634;19;20159;-81
2023/08/14 09:15:18;;;;;;;4.13;2.90;;;;;29.50;94199.00;;;;7378770;19;20209;-83
2023/08/14 09:17:54;;;;;;;4.15;3.65;;;;;29.40;94199.00;;;;7378822;19;20444;-78
2023/08/14 09:20:22;;;;;;;9.23;3.92;;;;;29.40;94187.00;;;;7380989;19;20607;-76
2023/08/14 09:22:58;;;;;;;4.97;3.47;;;;;29.10;94204.00;;;;7389187;19;20124;-76
2023/08/14 09:25:33;;;;;;;4.57;3.42;;;;;28.80;94204.00;;;;7389659;19;20175;-76
2023/08/14 09:28:01;;;;;;;7.15;3.53;;;;;28.50;94200.00;;;;7387012;19;20159;-77
2023/08/14 09:30:41;;;;;;;4.00;3.50;;;;;28.50;94190.00;;;;7388071;19;20152;-77
2023/08/14 09:33:15;;;;;;;4.85;3.55;;;;;28.80;94189.00;;;;7381767;19;20129;-77
2023/08/14 09:35:52;;;;;;;4.25;3.85;;;;;28.90;94201.00;;;;7384658;19;20152;-75
2023/08/14 09:38:27;;;;;;;5.65;3.33;;;;;28.60;94212.00;;;;7385957;19;20190;-77
2023/08/14 09:40:59;;;;;;;4.57;3.50;;;;;28.30;94191.00;;;;7387728;19;20133;-75
2023/08/14 09:43:35;;;;;;;5.03;3.47;;;;;28.60;94191.00;;;;7387615;19;20239;-75
2023/08/14 09:46:12;;;;;;;3.85;3.45;;;;;28.90;94196.00;;;;7385011;19;21024;-77
2023/08/14 09:48:45;;;;;;;7.20;3.13;;;;;29.20;94186.00;;;;7387680;19;20153;-79
2023/08/14 09:51:19;;;;;;;5.07;3.08;;;;;28.80;94197.00;;;;7388828;19;20667;-77
2023/08/14 09:53:52;;;;;;;6.07;3.50;;;;;29.00;94182.00;;;;7387540;19;20615;-76
2023/08/14 09:56:27;;;;;;;4.05;3.10;;;;;29.40;94186.00;;;;7386596;19;20963;-76
2023/08/14 09:59:00;;;;;;;3.42;2.63;;;;;29.60;94181.00;;;;7385887;19;20149;-77
2023/08/14 10:01:49;;;;;;;2.90;2.60;;;;;29.70;94185.00;;;;7387342;19;20163;-77
2023/08/14 10:04:26;;;;;;;5.85;3.10;;;;;29.70;94182.00;;;;7389161;19;20209;-77
2023/08/14 10:07:01;;;;;;;4.88;2.85;;;;;30.00;94183.00;;;;7385571;19;20670;-77
2023/08/14 10:09:38;;;;;;;2.88;2.67;;;;;30.50;94188.00;;;;7388251;19;20212;-77
2023/08/14 10:12:11;;;;;;;6.60;3.30;;;;;30.70;94198.00;;;;7386141;19;21876;-76
2023/08/14 10:14:57;;;;;;;5.95;3.28;;;;;29.80;94200.00;;;;7388305;19;20586;-76
2023/08/14 10:17:44;;;;;;;5.75;2.60;;;;;30.20;94193.00;;;;7387240;19;20248;-77
2023/08/14 10:20:20;;;;;;;3.85;2.83;;;;;30.40;94197.00;;;;7389426;19;20591;-75
2023/08/14 10:22:53;;;;;;;4.97;2.95;;;;;30.50;94169.00;;;;7389692;19;20132;-76
2023/08/14 10:25:28;;;;;;;3.55;3.10;;;;;30.50;94168.00;;;;7387330;19;20159;-77
2023/08/14 10:27:57;;;;;;;3.15;2.72;;;;;30.80;94181.00;;;;7382525;19;20663;-77
2023/08/14 10:30:32;;;;;;;5.32;3.05;;;;;31.20;94180.00;;;;7386539;19;20577;-74
2023/08/14 10:33:02;;;;;;;3.47;2.85;;;;;31.30;94194.00;;;;7377055;19;20120;-77
2023/08/14 10:35:56;;;;;;;3.22;2.92;;;;;30.90;94196.00;;;;7386046;19;20135;-75
2023/08/14 10:38:42;;;;;;;4.63;2.88;;;;;30.60;94197.00;;;;7387745;19;20569;-78
2023/08/14 10:41:22;;;;;;;3.92;2.97;;;;;30.90;94191.00;;;;7388734;19;20148;-76
2023/08/14 10:43:50;;;;;;;5.28;3.53;;;;;31.80;94185.00;;;;7385439;19;20144;-76
2023/08/14 10:46:28;;;;;;;5.95;2.80;;;;;32.50;94181.00;;;;7385840;19;20150;-77
2023/08/14 10:48:56;;;;;;;3.58;2.80;;;;;32.30;94211.00;;;;7384869;19;20733;-77
2023/08/14 10:51:32;;;;;;;4.53;3.22;;;;;31.90;94206.00;;;;7385089;19;20152;-77
2023/08/14 10:54:12;;;;;;;5.28;3.33;;;;;32.30;94208.00;;;;7384876;19;20133;-75
2023/08/14 10:56:51;;;;;;;5.25;3.08;;;;;31.40;94231.00;;;;7386933;19;20155;-74
2023/08/14 10:59:33;;;;;;;4.00;2.28;;;;;29.10;94251.00;;;;7385585;19;20160;-78
2023/08/14 11:02:15;;;;;;;2.67;2.47;;;;;28.10;94252.00;;;;7383808;19;20194;-78
2023/08/14 11:05:22;;;;;;;3.65;2.83;;;;;28.10;94252.00;;;;7384615;19;20658;-78
2023/08/14 11:07:58;;;;;;;5.88;3.00;;;;;28.20;94242.00;;;;7384156;19;20159;-75
2023/08/14 11:10:27;;;;;;;2.83;2.50;;;;;28.70;94242.00;;;;7382108;19;20147;-77
2023/08/14 11:13:03;;;;;;;5.20;2.80;;;;;28.90;94214.00;;;;7384191;19;20226;-77
2023/08/14 11:15:33;;;;;;;5.80;3.10;;;;;28.90;94219.00;;;;7385154;19;20148;-78
2023/08/14 11:18:09;;;;;;;4.10;2.72;;;;;28.60;94213.00;;;;7383196;19;20487;-78
2023/08/14 11:20:45;;;;;;;4.38;2.67;;;;;27.90;94215.00;;;;7381299;19;20148;-75
2023/08/14 11:23:20;;;;;;;4.78;2.60;;;;;27.00;94229.00;;;;7383559;19;20196;-78
2023/08/14 11:25:48;;;;;;;4.47;2.97;;;;;26.80;94228.00;;;;7382811;19;20152;-75
2023/08/14 11:28:23;;;;;;;5.60;2.92;;;;;26.50;94229.00;;;;7380962;19;20175;-76
2023/08/14 11:30:57;;;;;;;5.05;2.75;;;;;26.20;94231.00;;;;7382898;19;20125;-76
2023/08/14 11:33:32;;;;;;;3.13;2.83;;;;;26.20;94219.00;;;;7382802;19;20124;-75
2023/08/14 11:36:09;;;;;;;4.75;2.90;;;;;26.30;94230.00;;;;7384298;19;20139;-77
2023/08/14 11:38:40;;;;;;;3.03;2.78;;;;;26.50;94229.00;;;;7382557;19;20216;-79
2023/08/14 11:41:17;;;;;;;3.20;2.72;;;;;26.90;94229.00;;;;7382845;19;20533;-77
2023/08/14 11:43:58;;;;;;;2.90;2.60;;;;;28.40;94215.00;;;;7380537;19;20153;-78
2023/08/14 11:46:33;;;;;;;3.40;3.10;;;;;29.90;94211.00;;;;7380168;19;20588;-80
2023/08/14 11:49:07;;;;;;;4.78;3.00;;;;;30.90;94196.00;;;;7381880;19;20208;-77
2023/08/14 11:51:41;;;;;;;4.30;3.00;;;;;32.10;94184.00;;;;7383758;19;20128;-79
2023/08/14 11:54:10;;;;;;;3.63;3.00;;;;;31.70;94187.00;;;;7381434;19;20144;-77
2023/08/14 11:56:46;;;;;;;7.78;3.40;;;;;30.80;94195.00;;;;7383281;19;20151;-78
2023/08/14 11:59:15;;;;;;;4.00;2.90;;;;;29.90;94213.00;;;;7382910;19;20132;-80
2023/08/14 12:01:50;;;;;;;5.03;3.03;;;;;29.30;94218.00;;;;7383264;19;20152;-80
2023/08/14 12:04:30;;;;;;;3.42;3.13;;;;;29.10;94193.00;;;;7383869;19;20144;-78
2023/08/14 12:06:58;;;;;;;6.32;2.95;;;;;29.70;94225.00;;;;7384709;19;20591;-78
2023/08/14 12:09:33;;;;;;;8.23;3.00;;;;;29.90;94228.00;;;;7386638;19;20124;-77
2023/08/14 12:12:07;;;;;;;6.75;3.20;;;;;29.30;94239.00;;;;7382452;19;20763;-77
2023/08/14 12:14:44;;;;;;;3.65;3.35;;;;;29.30;94238.00;;;;7383239;19;20607;-75
2023/08/14 12:17:13;;;;;;;4.32;3.00;;;;;29.50;94241.00;;;;7385138;19;20582;-79
2023/08/14 12:19:49;;;;;;;4.05;3.15;;;;;29.50;94244.00;;;;7379464;19;20464;-77
2023/08/14 12:22:23;;;;;;;4.75;3.35;;;;;29.70;94213.00;;;;7382536;19;20136;-77
2023/08/14 12:24:57;;;;;;;3.40;3.08;;;;;29.70;94236.00;;;;7382542;19;20147;-77
2023/08/14 12:27:26;;;;;;;3.55;3.25;;;;;29.60;94235.00;;;;7384895;19;20199;-79
2023/08/14 12:30:01;;;;;;;4.95;3.05;;;;;29.20;94249.00;;;;7385128;19;20155;-79
2023/08/14 12:32:29;;;;;;;4.22;3.58;;;;;29.10;94249.00;;;;7376848;19;20144;-77
2023/08/14 12:35:04;;;;;;;3.03;2.72;;;;;29.30;94255.00;;;;7381180;19;20630;-79
2023/08/14 12:37:41;;;;;;;3.92;3.08;;;;;28.20;94249.00;;;;7380249;19;20147;-76
2023/08/14 12:40:15;;;;;;;4.53;3.22;;;;;28.40;94256.00;;;;7384574;19;20151;-78
2023/08/14 12:42:53;;;;;;;6.57;3.22;;;;;28.20;94256.00;;;;7381684;19;20683;-77
2023/08/14 12:45:29;;;;;;;6.78;3.40;;;;;28.10;94252.00;;;;7382768;19;20163;-80
2023/08/14 12:48:04;;;;;;;4.55;3.20;;;;;28.90;94248.00;;;;7382042;19;20125;-76
2023/08/14 12:50:32;;;;;;;4.72;3.75;;;;;30.40;94230.00;;;;7376074;19;20176;-77
2023/08/14 12:53:09;;;;;;;4.63;3.20;;;;;32.10;94229.00;;;;7382187;19;20174;-77